createdAt,value
2023-04-27T00:02:05.482Z,3.80
2023-04-27T00:04:34.986Z,3.83
2023-04-27T00:07:03.152Z,3.97
2023-04-27T00:09:31.006Z,4.00
2023-04-27T00:11:58.890Z,3.90
2023-04-27T00:14:28.789Z,3.90
2023-04-27T00:16:56.902Z,3.90
2023-04-27T00:19:24.796Z,3.47
2023-04-27T00:21:54.022Z,4.10
2023-04-27T00:24:21.930Z,3.60
2023-04-27T00:26:49.803Z,4.17
2023-04-27T00:29:17.630Z,3.50
2023-04-27T00:31:45.579Z,3.80
2023-04-27T00:34:13.471Z,4.07
2023-04-27T00:36:41.462Z,3.73
2023-04-27T00:39:10.720Z,3.87
2023-04-27T00:41:39.346Z,4.00
2023-04-27T00:44:07.564Z,4.40
2023-04-27T00:46:36.255Z,3.53
2023-04-27T00:49:04.321Z,3.77
2023-04-27T00:51:32.271Z,3.87
2023-04-27T00:54:01.844Z,3.80
2023-04-27T00:56:31.174Z,3.80
2023-04-27T00:58:59.411Z,3.90
2023-04-27T01:01:28.434Z,3.90
2023-04-27T01:03:56.487Z,3.87
2023-04-27T01:06:24.546Z,4.10
2023-04-27T01:08:52.917Z,4.17
2023-04-27T01:11:21.683Z,3.90
2023-04-27T01:13:51.099Z,3.90
2023-04-27T01:16:19.233Z,4.23
2023-04-27T01:18:48.256Z,3.90
2023-04-27T01:21:16.698Z,4.27
2023-04-27T01:23:46.093Z,3.87
2023-04-27T01:26:16.429Z,4.30
2023-04-27T01:28:44.546Z,3.70
2023-04-27T01:31:12.737Z,3.87
2023-04-27T01:33:41.093Z,3.73
2023-04-27T01:36:10.231Z,3.63
2023-04-27T01:38:38.322Z,4.00
2023-04-27T01:41:09.341Z,4.40
2023-04-27T01:43:38.148Z,4.00
2023-04-27T01:46:10.601Z,3.83
2023-04-27T01:48:39.407Z,3.80
2023-04-27T01:51:07.508Z,3.87
2023-04-27T01:53:35.769Z,4.17
2023-04-27T01:56:03.832Z,3.97
2023-04-27T01:58:33.083Z,3.97
2023-04-27T02:01:01.077Z,3.90
2023-04-27T02:03:29.063Z,3.90
2023-04-27T02:05:57.075Z,3.93
2023-04-27T02:08:24.969Z,3.87
2023-04-27T02:10:52.834Z,4.40
2023-04-27T02:13:21.239Z,4.40
2023-04-27T02:15:50.635Z,4.30
2023-04-27T02:18:18.513Z,4.03
2023-04-27T02:20:46.350Z,5.07
2023-04-27T02:23:14.360Z,4.57
2023-04-27T02:25:46.481Z,4.53
2023-04-27T02:28:14.623Z,4.20
2023-04-27T02:30:42.953Z,4.03
2023-04-27T02:33:12.187Z,4.40
2023-04-27T02:35:40.063Z,4.83
2023-04-27T02:38:07.965Z,4.20
2023-04-27T02:40:35.937Z,4.30
2023-04-27T02:43:04.039Z,4.30
2023-04-27T02:45:31.939Z,4.47
2023-04-27T02:47:59.843Z,4.83
2023-04-27T02:50:29.285Z,4.40
2023-04-27T02:52:57.493Z,4.80
2023-04-27T02:55:25.693Z,4.63
2023-04-27T02:57:53.516Z,4.70
2023-04-27T03:00:22.055Z,4.63
2023-04-27T03:02:50.100Z,5.03
2023-04-27T03:05:18.324Z,4.90
2023-04-27T03:07:47.549Z,4.93
2023-04-27T03:10:15.515Z,4.90
2023-04-27T03:12:43.359Z,4.80
2023-04-27T03:15:11.817Z,5.23
2023-04-27T03:17:39.755Z,5.43
2023-04-27T03:20:10.218Z,5.20
2023-04-27T03:22:38.179Z,5.20
2023-04-27T03:25:08.477Z,6.00
2023-04-27T03:27:36.354Z,5.40
2023-04-27T03:30:04.680Z,5.87
2023-04-27T03:32:32.597Z,6.47
2023-04-27T03:35:00.826Z,5.80
2023-04-27T03:37:28.737Z,5.77
2023-04-27T03:39:56.615Z,5.77
2023-04-27T03:42:25.874Z,5.57
2023-04-27T03:44:54.043Z,5.67
2023-04-27T03:47:21.965Z,5.80
2023-04-27T03:49:49.864Z,6.07
2023-04-27T03:52:17.809Z,5.20
2023-04-27T03:54:45.652Z,5.50
2023-04-27T03:57:13.482Z,4.30
2023-04-27T03:59:42.740Z,4.37
2023-04-27T04:02:11.754Z,4.20
2023-04-27T04:04:39.968Z,4.20
2023-04-27T04:07:07.969Z,4.30
2023-04-27T04:09:35.802Z,4.30
2023-04-27T04:12:03.869Z,4.40
2023-04-27T04:14:31.850Z,4.90
2023-04-27T04:17:01.435Z,4.80
2023-04-27T04:19:29.275Z,4.60
2023-04-27T04:21:57.991Z,4.77
2023-04-27T04:24:26.185Z,4.40
2023-04-27T04:26:53.996Z,4.90
2023-04-27T04:29:21.934Z,5.07
2023-04-27T04:31:49.992Z,5.10
2023-04-27T04:34:19.535Z,5.37
2023-04-27T04:36:47.356Z,5.07
2023-04-27T04:39:16.014Z,4.70
2023-04-27T04:41:44.201Z,4.90
2023-04-27T04:44:12.139Z,5.97
2023-04-27T04:46:40.107Z,6.30
2023-04-27T04:49:08.041Z,5.73
2023-04-27T04:51:37.455Z,6.03
2023-04-27T04:54:05.367Z,5.43
2023-04-27T04:56:33.229Z,5.67
2023-04-27T04:59:01.122Z,6.50
2023-04-27T05:01:29.320Z,5.90
2023-04-27T05:03:57.259Z,5.60
2023-04-27T05:06:25.219Z,5.83
2023-04-27T05:08:54.476Z,5.40
2023-04-27T05:11:22.360Z,5.40
2023-04-27T05:13:50.209Z,5.20
2023-04-27T05:16:18.125Z,6.00
2023-04-27T05:18:46.042Z,5.10
2023-04-27T05:21:17.756Z,5.07
2023-04-27T05:23:45.762Z,5.40
2023-04-27T05:26:15.596Z,4.93
2023-04-27T05:28:43.780Z,4.63
2023-04-27T05:31:11.843Z,5.23
2023-04-27T05:33:39.724Z,5.23
2023-04-27T05:36:08.070Z,5.00
2023-04-27T05:38:40.038Z,5.03
2023-04-27T05:41:08.016Z,5.10
2023-04-27T05:43:38.726Z,5.37
2023-04-27T05:46:06.913Z,5.80
2023-04-27T05:48:35.405Z,5.73
2023-04-27T05:51:03.859Z,6.03
2023-04-27T05:53:32.090Z,5.97
2023-04-27T05:56:01.138Z,5.93
2023-04-27T05:58:29.410Z,5.47
2023-04-27T06:00:58.658Z,5.17
2023-04-27T06:03:27.236Z,5.17
2023-04-27T06:05:58.769Z,5.30
2023-04-27T06:08:27.222Z,5.13
2023-04-27T06:10:55.583Z,5.20
2023-04-27T06:13:23.764Z,4.40
2023-04-27T06:15:51.689Z,5.80
2023-04-27T06:18:21.016Z,5.07
2023-04-27T06:20:48.896Z,5.33
2023-04-27T06:23:16.753Z,4.80
2023-04-27T06:25:45.036Z,4.70
2023-04-27T06:28:12.867Z,4.20
2023-04-27T06:30:40.741Z,4.87
2023-04-27T06:33:08.712Z,4.80
2023-04-27T06:35:37.989Z,4.97
2023-04-27T06:38:07.594Z,4.77
2023-04-27T06:40:37.077Z,4.80
2023-04-27T06:43:05.007Z,4.57
2023-04-27T06:45:32.834Z,4.90
2023-04-27T06:48:01.014Z,4.57
2023-04-27T06:50:29.600Z,4.67
2023-04-27T06:52:58.842Z,4.40
2023-04-27T06:55:26.743Z,5.10
2023-04-27T06:57:54.632Z,4.87
2023-04-27T07:00:22.895Z,4.70
2023-04-27T07:02:51.541Z,4.13
2023-04-27T07:05:19.865Z,4.57
2023-04-27T07:07:47.825Z,4.73
2023-04-27T07:10:17.194Z,4.80
2023-04-27T07:12:45.106Z,4.30
2023-04-27T07:15:13.234Z,4.30
2023-04-27T07:17:41.515Z,4.90
2023-04-27T07:20:10.245Z,4.27
2023-04-27T07:22:38.132Z,4.10
2023-04-27T07:25:06.898Z,4.30
2023-04-27T07:27:36.221Z,3.90
2023-04-27T07:30:05.313Z,3.57
2023-04-27T07:32:33.280Z,4.60
2023-04-27T07:35:01.450Z,3.97
2023-04-27T07:37:29.698Z,4.23
2023-04-27T07:39:57.727Z,4.10
2023-04-27T07:42:26.123Z,3.57
2023-04-27T07:44:55.349Z,4.03
2023-04-27T07:47:24.049Z,3.73
2023-04-27T07:49:52.958Z,3.53
2023-04-27T07:52:20.879Z,3.63
2023-04-27T07:54:48.724Z,4.00
2023-04-27T07:57:16.639Z,3.67
2023-04-27T07:59:44.534Z,3.83
2023-04-27T08:02:19.659Z,3.63
2023-04-27T08:04:48.616Z,3.70
2023-04-27T08:07:17.573Z,3.57
2023-04-27T08:09:45.737Z,3.90
2023-04-27T08:12:13.617Z,3.57
2023-04-27T08:14:41.588Z,4.00
2023-04-27T08:17:09.435Z,3.50
2023-04-27T08:19:38.783Z,3.73
2023-04-27T08:22:06.729Z,3.80
2023-04-27T08:24:34.765Z,3.90
2023-04-27T08:27:03.424Z,3.83
2023-04-27T08:29:31.574Z,3.90
2023-04-27T08:32:01.285Z,3.60
2023-04-27T08:34:29.496Z,4.00
2023-04-27T08:36:58.888Z,4.13
2023-04-27T08:39:26.817Z,3.80
2023-04-27T08:41:54.818Z,3.90
2023-04-27T08:44:22.676Z,4.10
2023-04-27T08:46:51.972Z,3.90
2023-04-27T08:49:20.921Z,4.10
2023-04-27T08:51:48.996Z,4.00
2023-04-27T08:54:18.933Z,4.17
2023-04-27T08:56:46.765Z,4.00
2023-04-27T08:59:16.752Z,4.20
2023-04-27T09:01:46.516Z,3.83
2023-04-27T09:04:14.502Z,4.27
2023-04-27T09:06:42.615Z,3.70
2023-04-27T09:09:11.474Z,4.27
2023-04-27T09:11:40.941Z,3.97
2023-04-27T09:14:18.449Z,4.10
2023-04-27T09:16:46.586Z,4.17
2023-04-27T09:19:25.687Z,4.17
2023-04-27T09:22:04.579Z,3.80
2023-04-27T09:24:32.436Z,4.07
2023-04-27T09:27:01.883Z,4.07
2023-04-27T09:29:37.501Z,4.03
2023-04-27T09:32:18.988Z,4.27
2023-04-27T09:34:46.920Z,4.40
2023-04-27T09:37:16.110Z,3.77
2023-04-27T09:39:44.457Z,3.77
2023-04-27T09:42:14.109Z,3.80
2023-04-27T09:44:41.983Z,3.85
2023-04-27T09:47:14.270Z,3.10
2023-04-27T09:49:42.178Z,2.80
2023-04-27T09:52:11.581Z,2.88
2023-04-27T09:54:40.815Z,2.70
2023-04-27T09:57:20.200Z,2.90
2023-04-27T10:00:11.310Z,2.83
2023-04-27T10:02:53.159Z,2.78
2023-04-27T10:05:43.601Z,3.38
2023-04-27T10:08:12.500Z,3.05
2023-04-27T10:10:49.172Z,3.08
2023-04-27T10:13:26.403Z,2.80
2023-04-27T10:15:54.808Z,3.28
2023-04-27T10:18:32.001Z,2.78
2023-04-27T10:21:11.732Z,3.20
2023-04-27T10:23:48.449Z,3.10
2023-04-27T10:26:24.016Z,3.10
2023-04-27T10:29:00.685Z,3.08
2023-04-27T10:31:29.521Z,3.50
2023-04-27T10:34:08.278Z,3.05
2023-04-27T10:36:38.570Z,2.90
2023-04-27T10:39:17.628Z,2.97
2023-04-27T10:41:53.496Z,2.83
2023-04-27T10:44:28.738Z,3.28
2023-04-27T10:46:59.742Z,3.20
2023-04-27T10:49:29.281Z,2.80
2023-04-27T10:51:59.667Z,3.00
2023-04-27T10:54:29.587Z,3.35
2023-04-27T10:57:03.943Z,2.95
2023-04-27T10:59:33.808Z,2.67
2023-04-27T11:02:01.930Z,2.78
2023-04-27T11:04:40.215Z,2.67
2023-04-27T11:07:09.582Z,2.90
2023-04-27T11:09:37.874Z,2.72
2023-04-27T11:12:08.803Z,3.30
2023-04-27T11:14:38.193Z,3.25
2023-04-27T11:17:06.421Z,3.22
2023-04-27T11:19:34.278Z,3.08
2023-04-27T11:22:06.210Z,2.80
2023-04-27T11:24:34.285Z,2.70
2023-04-27T11:27:02.395Z,2.97
2023-04-27T11:29:40.097Z,2.95
2023-04-27T11:32:08.370Z,2.65
2023-04-27T11:34:38.875Z,2.90
2023-04-27T11:39:41.680Z,3.00
2023-04-27T11:42:18.118Z,2.88
2023-04-27T11:44:54.114Z,3.20
2023-04-27T11:47:23.030Z,3.00
2023-04-27T11:49:52.204Z,3.17
2023-04-27T11:52:20.675Z,2.83
2023-04-27T11:54:49.781Z,3.05
2023-04-27T11:57:18.006Z,2.95
2023-04-27T11:59:46.412Z,3.10
2023-04-27T12:02:15.725Z,3.00
2023-04-27T12:04:43.960Z,3.08
2023-04-27T12:07:12.348Z,3.13
2023-04-27T12:09:40.556Z,3.35
2023-04-27T12:12:08.901Z,3.15
2023-04-27T12:14:36.876Z,3.45
2023-04-27T12:17:04.909Z,2.80
2023-04-27T12:19:34.187Z,2.90
2023-04-27T12:22:02.249Z,2.88
2023-04-27T12:24:30.158Z,3.15
2023-04-27T12:26:58.139Z,2.95
2023-04-27T12:29:26.306Z,3.10
2023-04-27T12:31:54.611Z,3.30
2023-04-27T12:34:22.583Z,2.65
2023-04-27T12:36:54.721Z,2.67
2023-04-27T12:39:25.411Z,2.88
2023-04-27T12:41:54.317Z,2.92
2023-04-27T12:44:22.772Z,3.00
2023-04-27T12:46:52.343Z,2.92
2023-04-27T12:49:20.286Z,3.10
2023-04-27T12:51:51.636Z,2.67
2023-04-27T12:54:21.248Z,2.83
2023-04-27T12:56:49.147Z,2.93
2023-04-27T12:59:17.721Z,3.13
2023-04-27T13:01:46.468Z,2.97
2023-04-27T13:04:20.560Z,3.03
2023-04-27T13:06:49.190Z,2.97
2023-04-27T13:09:17.112Z,3.30
2023-04-27T13:11:46.378Z,3.27
2023-04-27T13:14:15.265Z,3.33
2023-04-27T13:16:43.677Z,2.87
2023-04-27T13:19:11.515Z,3.07
2023-04-27T13:21:39.524Z,2.87
2023-04-27T13:24:08.330Z,2.90
2023-04-27T13:26:36.414Z,3.07
2023-04-27T13:29:05.741Z,3.10
2023-04-27T13:31:34.268Z,3.07
2023-04-27T13:34:04.533Z,2.90
2023-04-27T13:36:32.423Z,2.63
2023-04-27T13:39:00.479Z,2.97
2023-04-27T13:41:28.474Z,2.90
2023-04-27T13:43:56.334Z,3.20
2023-04-27T13:46:25.601Z,3.10
2023-04-27T13:48:53.519Z,2.70
2023-04-27T13:51:21.485Z,3.10
2023-04-27T13:53:49.390Z,3.03
2023-04-27T13:56:17.256Z,2.80
2023-04-27T13:58:45.144Z,3.10
2023-04-27T14:01:13.336Z,2.80
2023-04-27T14:03:43.658Z,3.03
2023-04-27T14:06:11.861Z,3.20
2023-04-27T14:08:39.760Z,3.40
2023-04-27T14:11:07.658Z,3.00
2023-04-27T14:13:35.677Z,3.10
2023-04-27T14:16:03.546Z,2.90
2023-04-27T14:18:32.791Z,2.93
2023-04-27T14:21:02.372Z,2.90
2023-04-27T14:23:30.820Z,2.90
2023-04-27T14:25:58.787Z,3.00
2023-04-27T14:28:27.046Z,2.93
2023-04-27T14:30:54.895Z,3.27
2023-04-27T14:33:22.816Z,3.30
2023-04-27T14:35:50.707Z,3.40
2023-04-27T14:38:19.939Z,3.30
2023-04-27T14:40:47.966Z,3.07
2023-04-27T14:43:17.066Z,3.30
2023-04-27T14:45:52.323Z,3.43
2023-04-27T14:48:23.505Z,2.90
2023-04-27T14:50:51.449Z,3.00
2023-04-27T14:53:20.930Z,3.17
2023-04-27T14:55:48.841Z,3.40
2023-04-27T14:58:16.672Z,3.03
2023-04-27T15:00:44.581Z,3.30
2023-04-27T15:03:12.715Z,2.83
2023-04-27T15:05:40.840Z,2.93
2023-04-27T15:08:08.737Z,3.73
2023-04-27T15:10:38.035Z,3.27
2023-04-27T15:13:05.974Z,3.20
2023-04-27T15:15:33.839Z,2.87
2023-04-27T15:18:02.092Z,2.73
2023-04-27T15:20:30.086Z,3.30
2023-04-27T15:22:58.031Z,3.60
2023-04-27T15:25:25.995Z,3.20
2023-04-27T15:27:55.286Z,2.97
2023-04-27T15:30:23.126Z,3.00
2023-04-27T15:32:51.062Z,3.20
2023-04-27T15:35:19.119Z,2.93
2023-04-27T15:37:47.063Z,3.30
2023-04-27T15:40:15.003Z,3.20
2023-04-27T15:42:42.855Z,3.30
2023-04-27T15:45:12.746Z,4.10
2023-04-27T15:47:40.834Z,6.20
2023-04-27T15:50:09.519Z,3.97
2023-04-27T15:52:37.400Z,3.77
2023-04-27T15:55:05.936Z,3.63
2023-04-27T15:57:34.044Z,3.50
2023-04-27T16:00:02.035Z,3.33
2023-04-27T16:02:31.421Z,3.53
2023-04-27T16:04:59.483Z,3.20
2023-04-27T16:07:27.329Z,3.10
2023-04-27T16:09:55.237Z,3.30
2023-04-27T16:12:23.201Z,3.30
2023-04-27T16:14:51.949Z,3.10
2023-04-27T16:17:19.849Z,3.63
2023-04-27T16:19:49.079Z,3.37
2023-04-27T16:22:17.087Z,3.30
2023-04-27T16:24:44.942Z,3.17
2023-04-27T16:27:12.815Z,3.20
2023-04-27T16:29:40.787Z,3.50
2023-04-27T16:32:08.719Z,3.03
2023-04-27T16:34:37.311Z,3.13
2023-04-27T16:37:06.753Z,3.77
2023-04-27T16:39:34.614Z,3.10
2023-04-27T16:42:04.086Z,3.17
2023-04-27T16:44:32.132Z,3.23
2023-04-27T16:46:59.983Z,3.07
2023-04-27T16:49:27.884Z,3.40
2023-04-27T16:51:58.753Z,3.30
2023-04-27T16:54:28.026Z,3.33
2023-04-27T16:56:55.864Z,3.30
2023-04-27T16:59:24.063Z,3.03
2023-04-27T17:01:52.027Z,3.50
2023-04-27T17:04:20.213Z,3.20
2023-04-27T17:06:48.650Z,3.10
2023-04-27T17:09:16.807Z,2.60
2023-04-27T17:11:46.316Z,3.23
2023-04-27T17:14:14.318Z,3.40
2023-04-27T17:16:42.274Z,3.10
2023-04-27T17:19:10.145Z,3.47
2023-04-27T17:21:38.004Z,3.13
2023-04-27T17:24:06.599Z,3.40
2023-04-27T17:26:34.449Z,3.40
2023-04-27T17:29:03.670Z,3.73
2023-04-27T17:31:31.549Z,4.03
2023-04-27T17:33:59.551Z,4.17
2023-04-27T17:36:27.852Z,4.40
2023-04-27T17:38:55.736Z,3.87
2023-04-27T17:41:23.581Z,3.80
2023-04-27T17:43:51.418Z,3.27
2023-04-27T17:46:20.815Z,2.80
2023-04-27T17:48:48.831Z,3.10
2023-04-27T17:51:16.669Z,3.00
2023-04-27T17:53:45.947Z,2.77
2023-04-27T17:56:13.897Z,3.20
2023-04-27T17:58:41.785Z,3.17
2023-04-27T18:01:11.581Z,2.80
2023-04-27T18:03:42.200Z,3.03
2023-04-27T18:06:10.784Z,2.70
2023-04-27T18:08:38.662Z,3.13
2023-04-27T18:11:06.836Z,3.27
2023-04-27T18:13:34.750Z,3.83
2023-04-27T18:16:03.325Z,4.30
2023-04-27T18:18:34.651Z,3.80
2023-04-27T18:21:03.970Z,3.90
2023-04-27T18:23:31.814Z,3.90
2023-04-27T18:26:00.125Z,3.40
2023-04-27T18:28:28.050Z,3.50
2023-04-27T18:30:56.040Z,3.97
2023-04-27T18:33:24.003Z,3.50
2023-04-27T18:35:52.068Z,3.70
2023-04-27T18:38:21.444Z,3.37
2023-04-27T18:40:49.350Z,3.37
2023-04-27T18:43:17.282Z,3.40
2023-04-27T18:45:45.284Z,3.97
2023-04-27T18:48:13.136Z,3.83
2023-04-27T18:50:41.033Z,3.70
2023-04-27T18:53:09.039Z,3.47
2023-04-27T18:55:39.474Z,3.60
2023-04-27T18:58:07.387Z,4.00
2023-04-27T19:00:35.338Z,3.87
2023-04-27T19:03:03.313Z,4.10
2023-04-27T19:05:31.576Z,3.77
2023-04-27T19:07:59.657Z,3.50
2023-04-27T19:10:27.558Z,3.20
2023-04-27T19:12:57.207Z,3.53
2023-04-27T19:15:25.433Z,3.87
2023-04-27T19:18:03.082Z,3.73
2023-04-27T19:20:38.270Z,3.90
2023-04-27T19:23:07.942Z,4.03
2023-04-27T19:25:36.107Z,4.00
2023-04-27T19:28:07.050Z,3.67
2023-04-27T19:30:35.416Z,3.90
2023-04-27T19:33:04.401Z,3.80
2023-04-27T19:35:32.361Z,3.73
2023-04-27T19:38:00.875Z,3.73
2023-04-27T19:40:28.929Z,4.00
2023-04-27T19:42:56.798Z,4.03
2023-04-27T19:45:26.251Z,3.73
2023-04-27T19:47:54.931Z,4.80
2023-04-27T19:50:23.580Z,4.13
2023-04-27T19:52:51.525Z,3.87
2023-04-27T19:55:19.508Z,4.27
2023-04-27T19:57:47.443Z,4.03
2023-04-27T20:00:16.614Z,4.40
2023-04-27T20:02:45.990Z,4.70
2023-04-27T20:05:14.189Z,5.40
2023-04-27T20:07:42.663Z,5.37
2023-04-27T20:10:10.561Z,5.00
2023-04-27T20:12:52.073Z,5.33
2023-04-27T20:15:24.348Z,4.70
2023-04-27T20:17:53.729Z,4.37
2023-04-27T20:20:21.810Z,4.67
2023-04-27T20:22:49.653Z,4.80
2023-04-27T20:25:19.607Z,5.03
2023-04-27T20:27:47.743Z,5.47
2023-04-27T20:30:16.172Z,4.90
2023-04-27T20:32:44.233Z,5.80
2023-04-27T20:35:13.528Z,5.60
2023-04-27T20:37:43.495Z,7.03
2023-04-27T20:40:14.410Z,6.43
2023-04-27T20:42:42.672Z,6.90
2023-04-27T20:45:11.454Z,6.67
2023-04-27T20:47:39.355Z,5.37
2023-04-27T20:50:08.143Z,4.93
2023-04-27T20:52:44.940Z,5.03
2023-04-27T20:55:12.917Z,5.40
2023-04-27T20:57:40.902Z,5.50
2023-04-27T21:00:10.436Z,5.20
2023-04-27T21:02:38.521Z,5.00
2023-04-27T21:05:06.664Z,4.87
2023-04-27T21:07:34.447Z,4.97
2023-04-27T21:10:06.624Z,5.00
2023-04-27T21:12:34.786Z,4.43
2023-04-27T21:15:03.279Z,4.60
2023-04-27T21:17:31.231Z,4.70
2023-04-27T21:19:59.363Z,5.63
2023-04-27T21:22:27.272Z,6.10
2023-04-27T21:24:55.233Z,6.83
2023-04-27T21:27:25.100Z,6.97
2023-04-27T21:29:53.286Z,6.90
2023-04-27T21:32:21.248Z,6.83
2023-04-27T21:34:49.186Z,6.20
2023-04-27T21:37:17.028Z,7.20
2023-04-27T21:39:45.053Z,7.40
2023-04-27T21:42:12.870Z,7.43
2023-04-27T21:44:42.090Z,7.63
2023-04-27T21:47:10.055Z,6.67
2023-04-27T21:49:37.993Z,6.47
2023-04-27T21:52:06.259Z,6.87
2023-04-27T21:54:34.150Z,6.60
2023-04-27T21:57:02.255Z,5.40
2023-04-27T21:59:30.279Z,5.60
2023-04-27T22:01:59.869Z,6.07
2023-04-27T22:04:28.753Z,6.10
2023-04-27T22:06:56.962Z,6.60
2023-04-27T22:09:24.864Z,6.47
2023-04-27T22:11:52.749Z,5.90
2023-04-27T22:14:20.963Z,6.57
2023-04-27T22:16:49.670Z,6.70
2023-04-27T22:19:19.257Z,6.10
2023-04-27T22:21:47.105Z,5.83
2023-04-27T22:24:15.112Z,6.27
2023-04-27T22:26:43.178Z,6.43
2023-04-27T22:29:11.117Z,6.57
2023-04-27T22:31:39.308Z,7.03
2023-04-27T22:34:07.378Z,6.83
2023-04-27T22:36:36.713Z,7.30
2023-04-27T22:39:05.561Z,7.33
2023-04-27T22:41:33.398Z,7.77
2023-04-27T22:44:01.403Z,7.37
2023-04-27T22:46:29.359Z,7.27
2023-04-27T22:48:58.730Z,7.13
2023-04-27T22:51:27.572Z,6.80
2023-04-27T22:53:56.800Z,6.50
2023-04-27T22:56:24.877Z,6.23
2023-04-27T22:58:52.786Z,6.70
2023-04-27T23:01:20.804Z,6.40
2023-04-27T23:03:48.834Z,6.27
2023-04-27T23:06:16.813Z,5.90
2023-04-27T23:08:47.140Z,6.60
2023-04-27T23:11:18.883Z,6.17
2023-04-27T23:13:48.172Z,6.60
2023-04-27T23:16:16.063Z,6.33
2023-04-27T23:18:43.946Z,6.30
2023-04-27T23:21:11.907Z,5.90
2023-04-27T23:23:39.837Z,6.30
2023-04-27T23:26:14.247Z,5.97
2023-04-27T23:28:44.648Z,5.60
2023-04-27T23:31:12.585Z,6.10
2023-04-27T23:33:40.454Z,5.50
2023-04-27T23:36:08.548Z,6.10
2023-04-27T23:38:36.574Z,5.60
2023-04-27T23:41:04.541Z,4.97
2023-04-27T23:43:32.602Z,5.33
2023-04-27T23:46:02.497Z,5.53
2023-04-27T23:48:30.431Z,5.97
2023-04-27T23:51:01.621Z,6.13
2023-04-27T23:53:29.576Z,5.33
2023-04-27T23:55:57.814Z,6.40
2023-04-27T23:58:26.275Z,6.30
